Terminal Aerodrome Forecast
Issued by NWS Wilmington, NC

Home | Current Version | Previous Version | Text Only | Print | Product List | Glossary On
Versions: 1 2 3 4 5 6 7 8 9 10 11 12 13 14 15 16 17
000
FTUS42 KILM 301100
TAFILM
TAF
KILM 301120Z 3012/3112 27010KT 6SM -SHRA BKN050 OVC100
     FM301300 31016G26KT P6SM FEW050
     FM310000 32010KT P6SM SKC=

USA.gov is the U.S. government's official web portal to all federal, state and local government web resources and services.